sensor_id;sensor_type;location;lat;lon;timestamp;temperature;humidity
53268;DHT22;39156;51.176;6.738;2023-02-28T00:01:29;1.00;60.30
53268;DHT22;39156;51.176;6.738;2023-02-28T00:03:55;1.00;60.40
53268;DHT22;39156;51.176;6.738;2023-02-28T00:06:21;1.00;60.60
53268;DHT22;39156;51.176;6.738;2023-02-28T00:08:47;0.90;60.60
53268;DHT22;39156;51.176;6.738;2023-02-28T00:11:14;0.80;60.60
53268;DHT22;39156;51.176;6.738;2023-02-28T00:13:43;1.60;61.10
53268;DHT22;39156;51.176;6.738;2023-02-28T00:16:19;0.90;61.00
53268;DHT22;39156;51.176;6.738;2023-02-28T00:18:47;0.90;61.10
53268;DHT22;39156;51.176;6.738;2023-02-28T00:21:13;0.80;61.00
53268;DHT22;39156;51.176;6.738;2023-02-28T00:23:39;0.90;61.00
53268;DHT22;39156;51.176;6.738;2023-02-28T00:26:05;0.80;61.20
53268;DHT22;39156;51.176;6.738;2023-02-28T00:28:31;0.80;61.20
53268;DHT22;39156;51.176;6.738;2023-02-28T00:30:56;0.80;61.40
53268;DHT22;39156;51.176;6.738;2023-02-28T00:33:23;0.80;61.40
53268;DHT22;39156;51.176;6.738;2023-02-28T00:35:48;0.80;61.70
53268;DHT22;39156;51.176;6.738;2023-02-28T00:38:15;0.70;61.60
53268;DHT22;39156;51.176;6.738;2023-02-28T00:40:41;0.70;61.70
53268;DHT22;39156;51.176;6.738;2023-02-28T00:43:06;0.80;61.70
53268;DHT22;39156;51.176;6.738;2023-02-28T00:45:32;0.80;61.90
53268;DHT22;39156;51.176;6.738;2023-02-28T00:47:58;0.80;62.00
53268;DHT22;39156;51.176;6.738;2023-02-28T00:50:23;0.70;61.90
53268;DHT22;39156;51.176;6.738;2023-02-28T00:52:49;0.70;61.90
53268;DHT22;39156;51.176;6.738;2023-02-28T00:55:15;0.70;62.10
53268;DHT22;39156;51.176;6.738;2023-02-28T00:57:41;0.70;62.10
53268;DHT22;39156;51.176;6.738;2023-02-28T01:00:07;0.70;62.10
53268;DHT22;39156;51.176;6.738;2023-02-28T01:02:34;0.80;62.10
53268;DHT22;39156;51.176;6.738;2023-02-28T01:04:59;0.80;62.20
53268;DHT22;39156;51.176;6.738;2023-02-28T01:07:25;0.60;62.10
53268;DHT22;39156;51.176;6.738;2023-02-28T01:09:51;0.60;62.20
53268;DHT22;39156;51.176;6.738;2023-02-28T01:12:17;0.70;62.30
53268;DHT22;39156;51.176;6.738;2023-02-28T01:14:42;0.60;62.50
53268;DHT22;39156;51.176;6.738;2023-02-28T01:17:08;0.60;62.50
53268;DHT22;39156;51.176;6.738;2023-02-28T01:19:34;0.60;62.40
53268;DHT22;39156;51.176;6.738;2023-02-28T01:22:02;0.50;62.30
53268;DHT22;39156;51.176;6.738;2023-02-28T01:24:28;0.60;62.20
53268;DHT22;39156;51.176;6.738;2023-02-28T01:26:54;0.60;62.20
53268;DHT22;39156;51.176;6.738;2023-02-28T01:29:20;0.50;62.10
53268;DHT22;39156;51.176;6.738;2023-02-28T01:31:46;0.60;62.10
53268;DHT22;39156;51.176;6.738;2023-02-28T01:34:12;0.60;62.10
53268;DHT22;39156;51.176;6.738;2023-02-28T01:36:38;0.70;62.20
53268;DHT22;39156;51.176;6.738;2023-02-28T01:39:04;0.50;62.20
53268;DHT22;39156;51.176;6.738;2023-02-28T01:41:33;0.50;62.00
53268;DHT22;39156;51.176;6.738;2023-02-28T01:44:03;0.50;62.10
53268;DHT22;39156;51.176;6.738;2023-02-28T01:46:34;0.50;62.10
53268;DHT22;39156;51.176;6.738;2023-02-28T01:49:05;0.50;62.30
53268;DHT22;39156;51.176;6.738;2023-02-28T01:51:41;0.60;62.50
53268;DHT22;39156;51.176;6.738;2023-02-28T01:54:16;0.50;62.60
53268;DHT22;39156;51.176;6.738;2023-02-28T01:56:51;0.50;62.60
53268;DHT22;39156;51.176;6.738;2023-02-28T01:59:30;0.40;62.80
53268;DHT22;39156;51.176;6.738;2023-02-28T02:02:00;0.50;62.90
53268;DHT22;39156;51.176;6.738;2023-02-28T02:04:34;0.40;62.80
53268;DHT22;39156;51.176;6.738;2023-02-28T02:07:03;0.50;63.30
53268;DHT22;39156;51.176;6.738;2023-02-28T02:09:30;0.40;63.10
53268;DHT22;39156;51.176;6.738;2023-02-28T02:11:56;0.40;63.20
53268;DHT22;39156;51.176;6.738;2023-02-28T02:14:43;0.30;63.30
53268;DHT22;39156;51.176;6.738;2023-02-28T02:17:44;0.40;63.90
53268;DHT22;39156;51.176;6.738;2023-02-28T02:20:46;0.30;64.10
53268;DHT22;39156;51.176;6.738;2023-02-28T02:26:22;0.30;63.90
53268;DHT22;39156;51.176;6.738;2023-02-28T02:29:21;0.40;64.30
53268;DHT22;39156;51.176;6.738;2023-02-28T02:37:47;0.20;64.30
53268;DHT22;39156;51.176;6.738;2023-02-28T02:40:32;0.10;64.50
53268;DHT22;39156;51.176;6.738;2023-02-28T02:45:54;0.10;64.50
53268;DHT22;39156;51.176;6.738;2023-02-28T02:48:25;0.10;64.50
53268;DHT22;39156;51.176;6.738;2023-02-28T02:50:55;0.10;64.60
53268;DHT22;39156;51.176;6.738;2023-02-28T02:53:29;0.10;64.80
53268;DHT22;39156;51.176;6.738;2023-02-28T02:55:58;0.00;64.80
53268;DHT22;39156;51.176;6.738;2023-02-28T02:58:29;0.00;64.80
53268;DHT22;39156;51.176;6.738;2023-02-28T03:01:00;0.00;64.80
53268;DHT22;39156;51.176;6.738;2023-02-28T03:03:28;0.00;64.90
53268;DHT22;39156;51.176;6.738;2023-02-28T03:05:59;0.00;64.90
53268;DHT22;39156;51.176;6.738;2023-02-28T03:08:27;-0.10;65.10
53268;DHT22;39156;51.176;6.738;2023-02-28T03:11:00;0.00;65.10
53268;DHT22;39156;51.176;6.738;2023-02-28T03:20:15;-0.10;65.30
53268;DHT22;39156;51.176;6.738;2023-02-28T03:23:02;-0.10;65.50
53268;DHT22;39156;51.176;6.738;2023-02-28T03:25:57;-0.20;65.40
53268;DHT22;39156;51.176;6.738;2023-02-28T03:31:36;-0.30;65.90
53268;DHT22;39156;51.176;6.738;2023-02-28T03:34:24;-0.30;65.50
53268;DHT22;39156;51.176;6.738;2023-02-28T03:36:59;-0.30;65.80
53268;DHT22;39156;51.176;6.738;2023-02-28T03:39:36;-0.40;65.90
53268;DHT22;39156;51.176;6.738;2023-02-28T03:42:11;-0.30;65.90
53268;DHT22;39156;51.176;6.738;2023-02-28T03:44:54;-0.40;66.00
53268;DHT22;39156;51.176;6.738;2023-02-28T03:47:24;-0.40;66.10
53268;DHT22;39156;51.176;6.738;2023-02-28T03:49:59;-0.30;65.90
53268;DHT22;39156;51.176;6.738;2023-02-28T03:52:33;-0.30;65.90
53268;DHT22;39156;51.176;6.738;2023-02-28T03:55:03;-0.30;65.90
53268;DHT22;39156;51.176;6.738;2023-02-28T04:00:25;-0.40;65.70
53268;DHT22;39156;51.176;6.738;2023-02-28T04:02:54;-0.40;65.60
53268;DHT22;39156;51.176;6.738;2023-02-28T04:05:21;-0.30;65.40
53268;DHT22;39156;51.176;6.738;2023-02-28T04:07:47;-0.30;65.90
53268;DHT22;39156;51.176;6.738;2023-02-28T04:10:15;-0.40;65.20
53268;DHT22;39156;51.176;6.738;2023-02-28T04:12:41;-0.40;65.10
53268;DHT22;39156;51.176;6.738;2023-02-28T04:15:07;-0.30;65.00
53268;DHT22;39156;51.176;6.738;2023-02-28T04:17:33;-0.40;65.00
53268;DHT22;39156;51.176;6.738;2023-02-28T04:19:59;-0.30;65.00
53268;DHT22;39156;51.176;6.738;2023-02-28T04:22:24;-0.40;64.80
53268;DHT22;39156;51.176;6.738;2023-02-28T04:24:51;-0.40;64.70
53268;DHT22;39156;51.176;6.738;2023-02-28T04:27:18;-0.40;64.70
53268;DHT22;39156;51.176;6.738;2023-02-28T04:29:45;-0.40;64.40
53268;DHT22;39156;51.176;6.738;2023-02-28T04:32:10;-0.50;64.20
53268;DHT22;39156;51.176;6.738;2023-02-28T04:34:36;-0.50;64.30
53268;DHT22;39156;51.176;6.738;2023-02-28T04:37:02;-0.40;64.50
53268;DHT22;39156;51.176;6.738;2023-02-28T04:39:28;-0.40;64.50
53268;DHT22;39156;51.176;6.738;2023-02-28T04:41:55;-0.50;64.40
53268;DHT22;39156;51.176;6.738;2023-02-28T04:44:22;-0.50;64.30
53268;DHT22;39156;51.176;6.738;2023-02-28T04:46:48;-0.50;64.30
53268;DHT22;39156;51.176;6.738;2023-02-28T04:49:14;-0.50;64.20
53268;DHT22;39156;51.176;6.738;2023-02-28T04:51:41;-0.40;64.40
53268;DHT22;39156;51.176;6.738;2023-02-28T04:54:07;-0.50;64.20
53268;DHT22;39156;51.176;6.738;2023-02-28T04:56:33;-0.50;64.30
53268;DHT22;39156;51.176;6.738;2023-02-28T04:58:59;-0.60;64.30
53268;DHT22;39156;51.176;6.738;2023-02-28T05:01:30;-0.50;64.90
53268;DHT22;39156;51.176;6.738;2023-02-28T05:04:00;-0.70;64.30
53268;DHT22;39156;51.176;6.738;2023-02-28T05:06:28;-0.50;64.40
53268;DHT22;39156;51.176;6.738;2023-02-28T05:08:56;-0.60;64.30
53268;DHT22;39156;51.176;6.738;2023-02-28T05:11:24;-0.60;63.90
53268;DHT22;39156;51.176;6.738;2023-02-28T05:13:54;-0.70;64.30
53268;DHT22;39156;51.176;6.738;2023-02-28T05:16:21;-0.60;64.20
53268;DHT22;39156;51.176;6.738;2023-02-28T05:18:47;-0.70;64.20
53268;DHT22;39156;51.176;6.738;2023-02-28T05:21:30;-0.60;64.30
53268;DHT22;39156;51.176;6.738;2023-02-28T05:24:00;-0.80;64.40
53268;DHT22;39156;51.176;6.738;2023-02-28T05:26:28;-0.80;64.20
53268;DHT22;39156;51.176;6.738;2023-02-28T05:28:55;-0.80;64.30
53268;DHT22;39156;51.176;6.738;2023-02-28T05:31:21;-0.70;64.40
53268;DHT22;39156;51.176;6.738;2023-02-28T05:33:47;-0.80;64.30
53268;DHT22;39156;51.176;6.738;2023-02-28T05:36:13;-0.80;64.30
53268;DHT22;39156;51.176;6.738;2023-02-28T05:38:39;-0.70;64.30
53268;DHT22;39156;51.176;6.738;2023-02-28T05:41:07;-0.80;64.30
53268;DHT22;39156;51.176;6.738;2023-02-28T05:43:33;-0.80;64.20
53268;DHT22;39156;51.176;6.738;2023-02-28T05:46:02;-0.90;64.20
53268;DHT22;39156;51.176;6.738;2023-02-28T05:48:35;-0.90;63.60
53268;DHT22;39156;51.176;6.738;2023-02-28T05:51:02;-0.90;64.00
53268;DHT22;39156;51.176;6.738;2023-02-28T05:53:29;-0.90;63.90
53268;DHT22;39156;51.176;6.738;2023-02-28T05:55:55;-1.00;63.80
53268;DHT22;39156;51.176;6.738;2023-02-28T05:58:21;-0.90;63.90
53268;DHT22;39156;51.176;6.738;2023-02-28T06:00:48;-1.00;63.80
53268;DHT22;39156;51.176;6.738;2023-02-28T06:03:13;-0.90;63.40
53268;DHT22;39156;51.176;6.738;2023-02-28T06:05:39;-0.90;63.80
53268;DHT22;39156;51.176;6.738;2023-02-28T06:08:05;-1.00;63.70
53268;DHT22;39156;51.176;6.738;2023-02-28T06:10:33;-1.00;63.80
53268;DHT22;39156;51.176;6.738;2023-02-28T06:13:04;-1.00;63.70
53268;DHT22;39156;51.176;6.738;2023-02-28T06:15:31;-1.10;63.60
53268;DHT22;39156;51.176;6.738;2023-02-28T06:17:57;-1.00;63.70
53268;DHT22;39156;51.176;6.738;2023-02-28T06:20:24;-1.10;63.10
53268;DHT22;39156;51.176;6.738;2023-02-28T06:22:55;-1.10;63.40
53268;DHT22;39156;51.176;6.738;2023-02-28T06:25:27;-1.10;63.30
53268;DHT22;39156;51.176;6.738;2023-02-28T06:27:54;-1.10;63.30
53268;DHT22;39156;51.176;6.738;2023-02-28T06:30:19;-1.10;63.20
53268;DHT22;39156;51.176;6.738;2023-02-28T06:32:49;-1.10;63.30
53268;DHT22;39156;51.176;6.738;2023-02-28T06:35:15;-1.10;62.70
53268;DHT22;39156;51.176;6.738;2023-02-28T06:37:46;-1.00;63.00
53268;DHT22;39156;51.176;6.738;2023-02-28T06:40:12;-1.00;62.70
53268;DHT22;39156;51.176;6.738;2023-02-28T06:42:38;-1.10;62.90
53268;DHT22;39156;51.176;6.738;2023-02-28T06:45:04;-1.00;62.80
53268;DHT22;39156;51.176;6.738;2023-02-28T06:47:40;-1.00;62.80
53268;DHT22;39156;51.176;6.738;2023-02-28T06:50:09;-0.90;62.30
53268;DHT22;39156;51.176;6.738;2023-02-28T06:52:38;-1.00;62.50
53268;DHT22;39156;51.176;6.738;2023-02-28T06:55:05;-1.00;62.50
53268;DHT22;39156;51.176;6.738;2023-02-28T06:57:33;-1.00;62.40
53268;DHT22;39156;51.176;6.738;2023-02-28T07:00:08;-1.00;62.30
53268;DHT22;39156;51.176;6.738;2023-02-28T07:02:35;-0.90;62.10
53268;DHT22;39156;51.176;6.738;2023-02-28T07:05:03;-0.80;62.20
53268;DHT22;39156;51.176;6.738;2023-02-28T07:07:30;-0.90;61.90
53268;DHT22;39156;51.176;6.738;2023-02-28T07:09:55;-0.80;61.90
53268;DHT22;39156;51.176;6.738;2023-02-28T07:12:21;-0.80;61.70
53268;DHT22;39156;51.176;6.738;2023-02-28T07:14:47;-0.80;61.50
53268;DHT22;39156;51.176;6.738;2023-02-28T07:17:13;-0.80;61.40
53268;DHT22;39156;51.176;6.738;2023-02-28T07:19:39;-0.70;61.10
53268;DHT22;39156;51.176;6.738;2023-02-28T07:22:05;-0.70;61.00
53268;DHT22;39156;51.176;6.738;2023-02-28T07:24:31;-0.70;60.90
53268;DHT22;39156;51.176;6.738;2023-02-28T07:26:57;-0.70;60.70
53268;DHT22;39156;51.176;6.738;2023-02-28T07:29:23;-0.60;60.60
53268;DHT22;39156;51.176;6.738;2023-02-28T07:31:48;-0.50;60.40
53268;DHT22;39156;51.176;6.738;2023-02-28T07:34:18;-0.50;60.30
53268;DHT22;39156;51.176;6.738;2023-02-28T07:36:44;-0.40;60.00
53268;DHT22;39156;51.176;6.738;2023-02-28T07:39:10;-0.40;59.90
53268;DHT22;39156;51.176;6.738;2023-02-28T07:41:36;-0.40;59.80
53268;DHT22;39156;51.176;6.738;2023-02-28T07:44:09;-0.40;59.40
53268;DHT22;39156;51.176;6.738;2023-02-28T07:46:35;-0.30;60.00
53268;DHT22;39156;51.176;6.738;2023-02-28T07:49:01;-0.20;60.10
53268;DHT22;39156;51.176;6.738;2023-02-28T07:51:28;-0.20;59.30
53268;DHT22;39156;51.176;6.738;2023-02-28T07:53:55;-0.20;59.00
53268;DHT22;39156;51.176;6.738;2023-02-28T07:56:21;-0.20;58.70
53268;DHT22;39156;51.176;6.738;2023-02-28T07:58:47;-0.10;58.80
53268;DHT22;39156;51.176;6.738;2023-02-28T08:01:13;0.00;58.70
53268;DHT22;39156;51.176;6.738;2023-02-28T08:03:39;0.00;58.30
53268;DHT22;39156;51.176;6.738;2023-02-28T08:06:07;0.20;58.10
53268;DHT22;39156;51.176;6.738;2023-02-28T08:08:34;0.10;58.10
53268;DHT22;39156;51.176;6.738;2023-02-28T08:11:01;0.30;58.70
53268;DHT22;39156;51.176;6.738;2023-02-28T08:13:28;0.70;59.00
53268;DHT22;39156;51.176;6.738;2023-02-28T08:15:55;1.00;58.80
53268;DHT22;39156;51.176;6.738;2023-02-28T08:18:22;1.50;59.40
53268;DHT22;39156;51.176;6.738;2023-02-28T08:20:48;2.00;59.30
53268;DHT22;39156;51.176;6.738;2023-02-28T08:23:14;2.50;57.80
53268;DHT22;39156;51.176;6.738;2023-02-28T08:25:40;3.20;56.40
53268;DHT22;39156;51.176;6.738;2023-02-28T08:28:06;3.50;55.70
53268;DHT22;39156;51.176;6.738;2023-02-28T08:30:31;4.10;54.20
53268;DHT22;39156;51.176;6.738;2023-02-28T08:32:57;4.40;54.00
53268;DHT22;39156;51.176;6.738;2023-02-28T08:35:23;4.80;53.20
53268;DHT22;39156;51.176;6.738;2023-02-28T08:37:49;5.20;51.10
53268;DHT22;39156;51.176;6.738;2023-02-28T08:40:16;5.60;50.20
53268;DHT22;39156;51.176;6.738;2023-02-28T08:42:45;6.00;50.20
53268;DHT22;39156;51.176;6.738;2023-02-28T08:45:11;6.30;49.90
53268;DHT22;39156;51.176;6.738;2023-02-28T08:47:37;6.60;50.20
53268;DHT22;39156;51.176;6.738;2023-02-28T08:50:04;6.90;48.30
53268;DHT22;39156;51.176;6.738;2023-02-28T08:52:30;7.20;46.60
53268;DHT22;39156;51.176;6.738;2023-02-28T08:54:56;7.60;45.50
53268;DHT22;39156;51.176;6.738;2023-02-28T08:57:22;7.60;45.20
53268;DHT22;39156;51.176;6.738;2023-02-28T08:59:48;7.90;43.10
53268;DHT22;39156;51.176;6.738;2023-02-28T09:02:14;8.00;43.70
53268;DHT22;39156;51.176;6.738;2023-02-28T09:04:40;8.20;42.30
53268;DHT22;39156;51.176;6.738;2023-02-28T09:07:06;8.20;41.40
53268;DHT22;39156;51.176;6.738;2023-02-28T09:09:32;8.30;42.00
53268;DHT22;39156;51.176;6.738;2023-02-28T09:11:58;8.40;41.90
53268;DHT22;39156;51.176;6.738;2023-02-28T09:14:24;8.50;41.50
53268;DHT22;39156;51.176;6.738;2023-02-28T09:16:50;8.50;42.00
53268;DHT22;39156;51.176;6.738;2023-02-28T09:19:15;8.70;41.40
53268;DHT22;39156;51.176;6.738;2023-02-28T09:21:41;8.70;41.40
53268;DHT22;39156;51.176;6.738;2023-02-28T09:24:07;8.90;40.90
53268;DHT22;39156;51.176;6.738;2023-02-28T09:26:33;9.00;39.40
53268;DHT22;39156;51.176;6.738;2023-02-28T09:28:59;9.00;38.80
53268;DHT22;39156;51.176;6.738;2023-02-28T09:31:27;9.10;38.90
53268;DHT22;39156;51.176;6.738;2023-02-28T09:33:55;9.10;37.70
53268;DHT22;39156;51.176;6.738;2023-02-28T09:36:23;9.00;37.30
53268;DHT22;39156;51.176;6.738;2023-02-28T09:38:49;8.90;37.30
53268;DHT22;39156;51.176;6.738;2023-02-28T09:41:25;8.80;37.10
53268;DHT22;39156;51.176;6.738;2023-02-28T09:43:55;8.70;37.00
53268;DHT22;39156;51.176;6.738;2023-02-28T09:46:37;8.40;37.20
53268;DHT22;39156;51.176;6.738;2023-02-28T09:49:10;8.20;37.50
53268;DHT22;39156;51.176;6.738;2023-02-28T09:51:47;8.10;38.00
53268;DHT22;39156;51.176;6.738;2023-02-28T09:54:19;8.10;38.40
53268;DHT22;39156;51.176;6.738;2023-02-28T09:57:01;8.10;38.20
53268;DHT22;39156;51.176;6.738;2023-02-28T09:59:59;8.00;38.00
53268;DHT22;39156;51.176;6.738;2023-02-28T10:05:19;7.70;37.50
53268;DHT22;39156;51.176;6.738;2023-02-28T10:08:04;7.50;37.50
53268;DHT22;39156;51.176;6.738;2023-02-28T10:13:37;7.00;37.40
53268;DHT22;39156;51.176;6.738;2023-02-28T10:19:27;6.40;37.50
53268;DHT22;39156;51.176;6.738;2023-02-28T10:22:02;6.10;37.50
53268;DHT22;39156;51.176;6.738;2023-02-28T10:24:48;5.80;37.90
53268;DHT22;39156;51.176;6.738;2023-02-28T10:27:25;5.70;38.50
53268;DHT22;39156;51.176;6.738;2023-02-28T10:29:56;5.50;38.70
53268;DHT22;39156;51.176;6.738;2023-02-28T10:32:27;5.50;39.60
53268;DHT22;39156;51.176;6.738;2023-02-28T10:35:18;5.60;39.40
53268;DHT22;39156;51.176;6.738;2023-02-28T10:37:57;5.80;39.80
53268;DHT22;39156;51.176;6.738;2023-02-28T10:43:01;6.00;39.90
53268;DHT22;39156;51.176;6.738;2023-02-28T10:45:33;6.10;39.50
53268;DHT22;39156;51.176;6.738;2023-02-28T10:53:28;6.80;40.40
53268;DHT22;39156;51.176;6.738;2023-02-28T11:01:21;7.10;38.50
53268;DHT22;39156;51.176;6.738;2023-02-28T11:03:51;7.10;38.00
53268;DHT22;39156;51.176;6.738;2023-02-28T11:06:51;7.00;37.40
53268;DHT22;39156;51.176;6.738;2023-02-28T11:11:52;6.60;37.60
53268;DHT22;39156;51.176;6.738;2023-02-28T11:14:30;6.50;38.00
53268;DHT22;39156;51.176;6.738;2023-02-28T11:17:11;6.20;38.20
53268;DHT22;39156;51.176;6.738;2023-02-28T11:19:45;6.10;38.30
53268;DHT22;39156;51.176;6.738;2023-02-28T11:22:28;5.80;38.40
53268;DHT22;39156;51.176;6.738;2023-02-28T11:24:57;5.80;38.50
53268;DHT22;39156;51.176;6.738;2023-02-28T11:29:58;5.70;39.20
53268;DHT22;39156;51.176;6.738;2023-02-28T11:32:26;5.60;39.00
53268;DHT22;39156;51.176;6.738;2023-02-28T11:37:35;5.50;39.40
53268;DHT22;39156;51.176;6.738;2023-02-28T11:40:02;5.50;39.50
53268;DHT22;39156;51.176;6.738;2023-02-28T11:43:04;5.30;39.30
53268;DHT22;39156;51.176;6.738;2023-02-28T11:45:54;5.30;39.70
53268;DHT22;39156;51.176;6.738;2023-02-28T11:48:42;5.30;39.80
53268;DHT22;39156;51.176;6.738;2023-02-28T11:51:33;5.20;39.80
53268;DHT22;39156;51.176;6.738;2023-02-28T11:56:51;5.20;40.40
53268;DHT22;39156;51.176;6.738;2023-02-28T11:59:39;5.20;40.40
53268;DHT22;39156;51.176;6.738;2023-02-28T12:02:24;5.10;40.40
53268;DHT22;39156;51.176;6.738;2023-02-28T12:08:00;5.20;40.60
53268;DHT22;39156;51.176;6.738;2023-02-28T12:10:56;5.20;40.60
53268;DHT22;39156;51.176;6.738;2023-02-28T12:16:37;5.20;40.50
53268;DHT22;39156;51.176;6.738;2023-02-28T12:19:13;5.20;40.50
53268;DHT22;39156;51.176;6.738;2023-02-28T12:24:50;5.20;40.50
53268;DHT22;39156;51.176;6.738;2023-02-28T12:27:28;5.10;40.40
53268;DHT22;39156;51.176;6.738;2023-02-28T12:30:01;5.20;40.50
53268;DHT22;39156;51.176;6.738;2023-02-28T12:32:35;5.10;40.50
53268;DHT22;39156;51.176;6.738;2023-02-28T12:35:26;5.20;40.60
53268;DHT22;39156;51.176;6.738;2023-02-28T12:38:17;5.20;41.20
53268;DHT22;39156;51.176;6.738;2023-02-28T12:40:53;5.30;40.50
53268;DHT22;39156;51.176;6.738;2023-02-28T12:43:27;5.20;40.40
53268;DHT22;39156;51.176;6.738;2023-02-28T12:45:59;5.30;40.60
53268;DHT22;39156;51.176;6.738;2023-02-28T12:48:36;5.20;40.50
53268;DHT22;39156;51.176;6.738;2023-02-28T12:51:06;5.20;40.40
53268;DHT22;39156;51.176;6.738;2023-02-28T12:53:43;5.20;40.50
53268;DHT22;39156;51.176;6.738;2023-02-28T12:59:57;5.10;41.20
53268;DHT22;39156;51.176;6.738;2023-02-28T13:11:06;5.20;40.90
53268;DHT22;39156;51.176;6.738;2023-02-28T13:13:32;5.20;41.00
53268;DHT22;39156;51.176;6.738;2023-02-28T13:16:07;5.10;41.40
53268;DHT22;39156;51.176;6.738;2023-02-28T13:18:42;5.20;41.50
53268;DHT22;39156;51.176;6.738;2023-02-28T13:21:26;5.10;41.60
53268;DHT22;39156;51.176;6.738;2023-02-28T13:24:01;5.20;41.30
53268;DHT22;39156;51.176;6.738;2023-02-28T13:35:34;5.10;41.60
53268;DHT22;39156;51.176;6.738;2023-02-28T13:37:35;5.10;41.30
53268;DHT22;39156;51.176;6.738;2023-02-28T13:40:31;5.10;42.70
53268;DHT22;39156;51.176;6.738;2023-02-28T13:43:08;5.20;41.40
53268;DHT22;39156;51.176;6.738;2023-02-28T13:45:34;5.20;41.40
53268;DHT22;39156;51.176;6.738;2023-02-28T13:48:16;5.20;41.50
53268;DHT22;39156;51.176;6.738;2023-02-28T13:50:44;5.20;41.70
53268;DHT22;39156;51.176;6.738;2023-02-28T13:55:46;5.20;41.90
53268;DHT22;39156;51.176;6.738;2023-02-28T14:01:32;5.30;41.80
53268;DHT22;39156;51.176;6.738;2023-02-28T14:06:50;5.40;41.40
53268;DHT22;39156;51.176;6.738;2023-02-28T14:09:33;5.30;41.40
53268;DHT22;39156;51.176;6.738;2023-02-28T14:17:54;5.30;42.00
53268;DHT22;39156;51.176;6.738;2023-02-28T14:20:22;5.30;42.00
53268;DHT22;39156;51.176;6.738;2023-02-28T14:31:44;5.30;42.30
53268;DHT22;39156;51.176;6.738;2023-02-28T14:37:05;5.30;42.50
53268;DHT22;39156;51.176;6.738;2023-02-28T14:39:33;5.30;42.40
53268;DHT22;39156;51.176;6.738;2023-02-28T14:42:00;5.40;42.30
53268;DHT22;39156;51.176;6.738;2023-02-28T14:44:30;5.40;42.10
53268;DHT22;39156;51.176;6.738;2023-02-28T14:46:58;5.50;42.20
53268;DHT22;39156;51.176;6.738;2023-02-28T14:49:32;5.50;42.30
53268;DHT22;39156;51.176;6.738;2023-02-28T14:54:43;5.40;42.40
53268;DHT22;39156;51.176;6.738;2023-02-28T14:57:29;5.40;42.40
53268;DHT22;39156;51.176;6.738;2023-02-28T15:02:39;5.50;42.80
53268;DHT22;39156;51.176;6.738;2023-02-28T15:07:38;5.40;42.60
53268;DHT22;39156;51.176;6.738;2023-02-28T15:13:08;5.40;42.30
53268;DHT22;39156;51.176;6.738;2023-02-28T15:18:48;5.50;42.50
53268;DHT22;39156;51.176;6.738;2023-02-28T15:21:21;5.50;42.70
53268;DHT22;39156;51.176;6.738;2023-02-28T15:23:55;5.40;42.80
53268;DHT22;39156;51.176;6.738;2023-02-28T15:26:27;5.50;43.00
53268;DHT22;39156;51.176;6.738;2023-02-28T15:29:01;5.50;42.90
53268;DHT22;39156;51.176;6.738;2023-02-28T15:31:38;5.40;42.70
53268;DHT22;39156;51.176;6.738;2023-02-28T15:34:12;5.40;42.90
53268;DHT22;39156;51.176;6.738;2023-02-28T15:36:43;5.40;43.10
53268;DHT22;39156;51.176;6.738;2023-02-28T15:39:24;5.40;43.30
53268;DHT22;39156;51.176;6.738;2023-02-28T15:41:55;5.40;43.30
53268;DHT22;39156;51.176;6.738;2023-02-28T15:44:38;5.30;43.00
53268;DHT22;39156;51.176;6.738;2023-02-28T15:47:12;5.30;43.30
53268;DHT22;39156;51.176;6.738;2023-02-28T15:49:45;5.30;43.60
53268;DHT22;39156;51.176;6.738;2023-02-28T15:52:21;5.40;43.70
53268;DHT22;39156;51.176;6.738;2023-02-28T15:54:50;5.30;43.90
53268;DHT22;39156;51.176;6.738;2023-02-28T15:57:34;5.30;43.70
53268;DHT22;39156;51.176;6.738;2023-02-28T16:00:02;5.30;44.00
53268;DHT22;39156;51.176;6.738;2023-02-28T16:02:36;5.20;43.90
53268;DHT22;39156;51.176;6.738;2023-02-28T16:07:35;5.30;44.10
53268;DHT22;39156;51.176;6.738;2023-02-28T16:10:03;5.20;44.00
53268;DHT22;39156;51.176;6.738;2023-02-28T16:12:31;5.20;44.00
53268;DHT22;39156;51.176;6.738;2023-02-28T16:15:02;5.10;44.00
53268;DHT22;39156;51.176;6.738;2023-02-28T16:17:37;5.20;44.00
53268;DHT22;39156;51.176;6.738;2023-02-28T16:20:25;5.10;44.20
53268;DHT22;39156;51.176;6.738;2023-02-28T16:22:53;5.10;44.40
53268;DHT22;39156;51.176;6.738;2023-02-28T16:25:24;5.00;44.40
53268;DHT22;39156;51.176;6.738;2023-02-28T16:27:55;5.10;44.70
53268;DHT22;39156;51.176;6.738;2023-02-28T16:30:24;4.90;44.70
53268;DHT22;39156;51.176;6.738;2023-02-28T16:32:53;4.90;45.00
53268;DHT22;39156;51.176;6.738;2023-02-28T16:35:20;4.90;45.30
53268;DHT22;39156;51.176;6.738;2023-02-28T16:37:46;4.90;45.40
53268;DHT22;39156;51.176;6.738;2023-02-28T16:40:16;5.00;45.60
53268;DHT22;39156;51.176;6.738;2023-02-28T16:42:45;4.80;45.60
53268;DHT22;39156;51.176;6.738;2023-02-28T16:45:20;4.70;45.60
53268;DHT22;39156;51.176;6.738;2023-02-28T16:47:47;4.70;46.00
53268;DHT22;39156;51.176;6.738;2023-02-28T16:50:18;4.60;46.00
53268;DHT22;39156;51.176;6.738;2023-02-28T16:52:49;4.60;46.20
53268;DHT22;39156;51.176;6.738;2023-02-28T16:55:17;4.50;46.10
53268;DHT22;39156;51.176;6.738;2023-02-28T16:57:45;4.60;46.40
53268;DHT22;39156;51.176;6.738;2023-02-28T17:00:16;4.60;46.60
53268;DHT22;39156;51.176;6.738;2023-02-28T17:02:42;4.40;46.60
53268;DHT22;39156;51.176;6.738;2023-02-28T17:05:10;4.30;46.80
53268;DHT22;39156;51.176;6.738;2023-02-28T17:07:37;4.30;46.90
53268;DHT22;39156;51.176;6.738;2023-02-28T17:10:22;4.20;46.90
53268;DHT22;39156;51.176;6.738;2023-02-28T17:12:49;4.10;47.10
53268;DHT22;39156;51.176;6.738;2023-02-28T17:15:17;4.10;47.20
53268;DHT22;39156;51.176;6.738;2023-02-28T17:17:44;4.00;47.30
53268;DHT22;39156;51.176;6.738;2023-02-28T17:20:16;4.10;47.40
53268;DHT22;39156;51.176;6.738;2023-02-28T17:22:42;4.10;47.60
53268;DHT22;39156;51.176;6.738;2023-02-28T17:25:09;4.00;47.60
53268;DHT22;39156;51.176;6.738;2023-02-28T17:27:36;4.10;47.80
53268;DHT22;39156;51.176;6.738;2023-02-28T17:30:09;3.90;47.80
53268;DHT22;39156;51.176;6.738;2023-02-28T17:32:42;3.90;47.80
53268;DHT22;39156;51.176;6.738;2023-02-28T17:35:08;3.90;47.80
53268;DHT22;39156;51.176;6.738;2023-02-28T17:37:34;3.80;47.90
53268;DHT22;39156;51.176;6.738;2023-02-28T17:40:00;3.90;48.10
53268;DHT22;39156;51.176;6.738;2023-02-28T17:42:26;4.10;48.30
53268;DHT22;39156;51.176;6.738;2023-02-28T17:44:52;3.80;48.30
53268;DHT22;39156;51.176;6.738;2023-02-28T17:47:17;3.60;48.20
53268;DHT22;39156;51.176;6.738;2023-02-28T17:49:43;3.60;48.30
53268;DHT22;39156;51.176;6.738;2023-02-28T17:52:09;3.60;48.50
53268;DHT22;39156;51.176;6.738;2023-02-28T17:54:35;3.60;48.70
53268;DHT22;39156;51.176;6.738;2023-02-28T17:57:01;3.60;48.80
53268;DHT22;39156;51.176;6.738;2023-02-28T17:59:26;3.70;48.80
53268;DHT22;39156;51.176;6.738;2023-02-28T18:02:01;3.90;49.10
53268;DHT22;39156;51.176;6.738;2023-02-28T18:04:28;3.60;49.10
53268;DHT22;39156;51.176;6.738;2023-02-28T18:06:54;3.60;49.20
53268;DHT22;39156;51.176;6.738;2023-02-28T18:09:25;3.50;49.20
53268;DHT22;39156;51.176;6.738;2023-02-28T18:11:53;3.50;49.30
53268;DHT22;39156;51.176;6.738;2023-02-28T18:14:22;3.40;49.20